Anerly, United Kingdom
Current Conditions -  °F | °C
As of 8:20 PM on Friday 24 Oct 2014 (Local Time) from EGKB Reporting Station
Broken Clouds Broken Clouds  
Wind Chill: 57°   Ceiling: 2500
Heat Index: 57°   Visibility: 6mi
Dew Point: 54°   Wind: 10mph
Humidity: 88%   Direction: 220°SW
Pressure: 29.94"   Gusts: NA
Location:  51.41°N, 0.06°W
Report Text: EGKB 241920Z 22009KT 9999 SCT010 BKN025 14/12 Q1014
Loading
Personal Weather Stations






























Interactive Weather Map
Tropical Storm Tracking
New forecast layout! Learn more

10-Day Weather Forecast

Advertisements
Track Severe Weather on mobile